sensor_id;sensor_type;location;lat;lon;timestamp;temperature;humidity
79244;SHT31;68672;42.676;23.356;2023-05-07T00:01:15;12.59;66.89
79244;SHT31;68672;42.676;23.356;2023-05-07T00:03:41;12.50;67.34
79244;SHT31;68672;42.676;23.356;2023-05-07T00:06:07;12.39;68.26
79244;SHT31;68672;42.676;23.356;2023-05-07T00:08:32;12.28;68.50
79244;SHT31;68672;42.676;23.356;2023-05-07T00:10:57;12.17;68.68
79244;SHT31;68672;42.676;23.356;2023-05-07T00:13:23;12.18;68.59
79244;SHT31;68672;42.676;23.356;2023-05-07T00:15:48;12.12;68.56
79244;SHT31;68672;42.676;23.356;2023-05-07T00:18:13;12.05;69.48
79244;SHT31;68672;42.676;23.356;2023-05-07T00:20:39;12.02;69.51
79244;SHT31;68672;42.676;23.356;2023-05-07T00:23:05;12.01;68.95
79244;SHT31;68672;42.676;23.356;2023-05-07T00:25:30;11.97;69.21
79244;SHT31;68672;42.676;23.356;2023-05-07T00:27:55;11.95;70.23
79244;SHT31;68672;42.676;23.356;2023-05-07T00:30:22;11.90;70.08
79244;SHT31;68672;42.676;23.356;2023-05-07T00:32:51;11.88;69.44
79244;SHT31;68672;42.676;23.356;2023-05-07T00:35:16;11.84;69.50
79244;SHT31;68672;42.676;23.356;2023-05-07T00:37:44;11.85;69.96
79244;SHT31;68672;42.676;23.356;2023-05-07T00:40:13;11.88;69.98
79244;SHT31;68672;42.676;23.356;2023-05-07T00:42:39;11.87;69.73
79244;SHT31;68672;42.676;23.356;2023-05-07T00:45:05;11.88;70.12
79244;SHT31;68672;42.676;23.356;2023-05-07T00:47:33;11.83;70.37
79244;SHT31;68672;42.676;23.356;2023-05-07T00:49:58;11.87;70.23
79244;SHT31;68672;42.676;23.356;2023-05-07T00:52:25;11.83;69.99
79244;SHT31;68672;42.676;23.356;2023-05-07T00:54:51;11.78;70.67
79244;SHT31;68672;42.676;23.356;2023-05-07T00:57:17;11.74;70.47
79244;SHT31;68672;42.676;23.356;2023-05-07T00:59:45;11.84;70.37
79244;SHT31;68672;42.676;23.356;2023-05-07T01:02:11;11.81;69.99
79244;SHT31;68672;42.676;23.356;2023-05-07T01:04:36;11.77;70.01
79244;SHT31;68672;42.676;23.356;2023-05-07T01:07:05;11.75;70.48
79244;SHT31;68672;42.676;23.356;2023-05-07T01:09:30;11.74;70.38
79244;SHT31;68672;42.676;23.356;2023-05-07T01:11:57;11.77;69.95
79244;SHT31;68672;42.676;23.356;2023-05-07T01:14:32;11.73;70.06
79244;SHT31;68672;42.676;23.356;2023-05-07T01:16:58;11.78;69.86
79244;SHT31;68672;42.676;23.356;2023-05-07T01:19:23;11.77;69.37
79244;SHT31;68672;42.676;23.356;2023-05-07T01:21:51;11.74;69.15
79244;SHT31;68672;42.676;23.356;2023-05-07T01:24:16;11.80;68.91
79244;SHT31;68672;42.676;23.356;2023-05-07T01:26:43;11.78;68.63
79244;SHT31;68672;42.676;23.356;2023-05-07T01:29:12;11.80;68.71
79244;SHT31;68672;42.676;23.356;2023-05-07T01:31:39;11.81;68.92
79244;SHT31;68672;42.676;23.356;2023-05-07T01:34:07;11.87;69.18
79244;SHT31;68672;42.676;23.356;2023-05-07T01:36:34;11.84;69.27
79244;SHT31;68672;42.676;23.356;2023-05-07T01:39:00;11.83;69.32
79244;SHT31;68672;42.676;23.356;2023-05-07T01:41:30;11.83;68.76
79244;SHT31;68672;42.676;23.356;2023-05-07T01:43:57;11.85;68.21
79244;SHT31;68672;42.676;23.356;2023-05-07T01:46:24;11.87;68.00
79244;SHT31;68672;42.676;23.356;2023-05-07T01:48:53;11.87;68.81
79244;SHT31;68672;42.676;23.356;2023-05-07T01:51:18;11.90;68.70
79244;SHT31;68672;42.676;23.356;2023-05-07T01:53:48;11.83;67.95
79244;SHT31;68672;42.676;23.356;2023-05-07T01:56:17;11.84;68.08
79244;SHT31;68672;42.676;23.356;2023-05-07T01:58:44;11.85;67.57
79244;SHT31;68672;42.676;23.356;2023-05-07T02:01:09;11.88;67.23
79244;SHT31;68672;42.676;23.356;2023-05-07T02:03:38;11.85;67.42
79244;SHT31;68672;42.676;23.356;2023-05-07T02:06:03;11.91;67.17
79244;SHT31;68672;42.676;23.356;2023-05-07T02:08:29;11.91;66.90
79244;SHT31;68672;42.676;23.356;2023-05-07T02:10:55;11.90;66.91
79244;SHT31;68672;42.676;23.356;2023-05-07T02:13:20;11.93;66.99
79244;SHT31;68672;42.676;23.356;2023-05-07T02:15:50;11.87;66.98
79244;SHT31;68672;42.676;23.356;2023-05-07T02:18:16;11.84;66.92
79244;SHT31;68672;42.676;23.356;2023-05-07T02:20:42;11.78;67.34
79244;SHT31;68672;42.676;23.356;2023-05-07T02:23:07;11.77;67.53
79244;SHT31;68672;42.676;23.356;2023-05-07T02:25:33;11.77;67.40
79244;SHT31;68672;42.676;23.356;2023-05-07T02:27:58;11.78;67.80
79244;SHT31;68672;42.676;23.356;2023-05-07T02:30:24;11.83;67.90
79244;SHT31;68672;42.676;23.356;2023-05-07T02:32:50;11.84;67.68
79244;SHT31;68672;42.676;23.356;2023-05-07T02:35:16;11.85;67.70
79244;SHT31;68672;42.676;23.356;2023-05-07T02:37:41;11.87;67.92
79244;SHT31;68672;42.676;23.356;2023-05-07T02:40:07;11.94;67.74
79244;SHT31;68672;42.676;23.356;2023-05-07T02:42:33;11.91;67.72
79244;SHT31;68672;42.676;23.356;2023-05-07T02:44:58;11.94;68.02
79244;SHT31;68672;42.676;23.356;2023-05-07T02:47:24;11.94;68.04
79244;SHT31;68672;42.676;23.356;2023-05-07T02:49:52;11.95;67.82
79244;SHT31;68672;42.676;23.356;2023-05-07T02:52:18;11.94;68.24
79244;SHT31;68672;42.676;23.356;2023-05-07T02:57:35;12.04;68.27
79244;SHT31;68672;42.676;23.356;2023-05-07T03:00:10;11.98;68.88
79244;SHT31;68672;42.676;23.356;2023-05-07T03:02:36;12.05;68.98
79244;SHT31;68672;42.676;23.356;2023-05-07T03:05:01;12.04;68.96
79244;SHT31;68672;42.676;23.356;2023-05-07T03:07:26;12.05;69.35
79244;SHT31;68672;42.676;23.356;2023-05-07T03:09:52;12.06;69.74
79244;SHT31;68672;42.676;23.356;2023-05-07T03:12:18;12.10;69.61
79244;SHT31;68672;42.676;23.356;2023-05-07T03:14:44;12.10;69.91
79244;SHT31;68672;42.676;23.356;2023-05-07T03:17:09;12.05;69.98
79244;SHT31;68672;42.676;23.356;2023-05-07T03:19:35;12.11;69.90
79244;SHT31;68672;42.676;23.356;2023-05-07T03:22:00;12.04;69.91
79244;SHT31;68672;42.676;23.356;2023-05-07T03:24:26;11.99;70.61
79244;SHT31;68672;42.676;23.356;2023-05-07T03:26:51;12.02;70.59
79244;SHT31;68672;42.676;23.356;2023-05-07T03:29:16;11.97;70.28
79244;SHT31;68672;42.676;23.356;2023-05-07T03:31:42;11.93;70.66
79244;SHT31;68672;42.676;23.356;2023-05-07T03:34:10;11.91;70.58
79244;SHT31;68672;42.676;23.356;2023-05-07T03:36:36;11.93;70.09
79244;SHT31;68672;42.676;23.356;2023-05-07T03:39:01;11.91;70.17
79244;SHT31;68672;42.676;23.356;2023-05-07T03:41:26;11.97;70.43
79244;SHT31;68672;42.676;23.356;2023-05-07T03:43:52;11.97;70.29
79244;SHT31;68672;42.676;23.356;2023-05-07T03:46:20;11.97;70.54
79244;SHT31;68672;42.676;23.356;2023-05-07T03:48:46;11.94;70.57
79244;SHT31;68672;42.676;23.356;2023-05-07T03:51:11;11.97;70.33
79244;SHT31;68672;42.676;23.356;2023-05-07T03:53:36;11.93;70.11
79244;SHT31;68672;42.676;23.356;2023-05-07T03:56:05;11.97;70.13
79244;SHT31;68672;42.676;23.356;2023-05-07T03:58:30;11.99;70.03
79244;SHT31;68672;42.676;23.356;2023-05-07T04:00:55;12.02;69.83
79244;SHT31;68672;42.676;23.356;2023-05-07T04:03:21;12.02;70.26
79244;SHT31;68672;42.676;23.356;2023-05-07T04:05:46;12.10;70.06
79244;SHT31;68672;42.676;23.356;2023-05-07T04:08:12;12.18;69.93
79244;SHT31;68672;42.676;23.356;2023-05-07T04:10:40;12.18;70.22
79244;SHT31;68672;42.676;23.356;2023-05-07T04:13:05;12.22;70.16
79244;SHT31;68672;42.676;23.356;2023-05-07T04:15:33;12.26;69.74
79244;SHT31;68672;42.676;23.356;2023-05-07T04:17:59;12.29;69.93
79244;SHT31;68672;42.676;23.356;2023-05-07T04:20:27;12.35;70.02
79244;SHT31;68672;42.676;23.356;2023-05-07T04:22:52;12.33;70.00
79244;SHT31;68672;42.676;23.356;2023-05-07T04:25:17;12.39;69.97
79244;SHT31;68672;42.676;23.356;2023-05-07T04:27:43;12.43;69.94
79244;SHT31;68672;42.676;23.356;2023-05-07T04:30:09;12.50;69.86
79244;SHT31;68672;42.676;23.356;2023-05-07T04:32:34;12.53;69.69
79244;SHT31;68672;42.676;23.356;2023-05-07T04:35:04;12.57;69.55
79244;SHT31;68672;42.676;23.356;2023-05-07T04:37:32;12.64;69.23
79244;SHT31;68672;42.676;23.356;2023-05-07T04:40:03;12.67;69.32
79244;SHT31;68672;42.676;23.356;2023-05-07T04:42:29;12.70;69.57
79244;SHT31;68672;42.676;23.356;2023-05-07T04:44:54;12.77;68.89
79244;SHT31;68672;42.676;23.356;2023-05-07T04:47:20;12.80;68.06
79244;SHT31;68672;42.676;23.356;2023-05-07T04:49:48;12.79;68.13
79244;SHT31;68672;42.676;23.356;2023-05-07T04:52:13;12.90;67.57
79244;SHT31;68672;42.676;23.356;2023-05-07T04:54:39;12.94;67.07
79244;SHT31;68672;42.676;23.356;2023-05-07T04:57:04;12.96;67.35
79244;SHT31;68672;42.676;23.356;2023-05-07T04:59:30;13.00;67.14
79244;SHT31;68672;42.676;23.356;2023-05-07T05:01:58;13.07;66.82
79244;SHT31;68672;42.676;23.356;2023-05-07T05:04:29;13.14;67.22
79244;SHT31;68672;42.676;23.356;2023-05-07T05:06:55;13.24;67.10
79244;SHT31;68672;42.676;23.356;2023-05-07T05:09:20;13.30;66.58
79244;SHT31;68672;42.676;23.356;2023-05-07T05:11:45;13.34;66.76
79244;SHT31;68672;42.676;23.356;2023-05-07T05:14:11;13.48;66.72
79244;SHT31;68672;42.676;23.356;2023-05-07T05:16:36;13.61;66.18
79244;SHT31;68672;42.676;23.356;2023-05-07T05:19:05;13.65;66.41
79244;SHT31;68672;42.676;23.356;2023-05-07T05:21:32;13.79;66.25
79244;SHT31;68672;42.676;23.356;2023-05-07T05:23:58;13.81;65.82
79244;SHT31;68672;42.676;23.356;2023-05-07T05:26:32;13.93;65.88
79244;SHT31;68672;42.676;23.356;2023-05-07T05:28:58;14.03;65.24
79244;SHT31;68672;42.676;23.356;2023-05-07T05:31:23;14.10;65.01
79244;SHT31;68672;42.676;23.356;2023-05-07T05:33:48;14.21;65.32
79244;SHT31;68672;42.676;23.356;2023-05-07T05:36:14;14.31;65.21
79244;SHT31;68672;42.676;23.356;2023-05-07T05:38:39;14.42;64.55
79244;SHT31;68672;42.676;23.356;2023-05-07T05:41:05;14.52;64.57
79244;SHT31;68672;42.676;23.356;2023-05-07T05:43:31;14.60;64.05
79244;SHT31;68672;42.676;23.356;2023-05-07T05:45:57;14.67;63.61
79244;SHT31;68672;42.676;23.356;2023-05-07T05:48:23;14.77;63.87
79244;SHT31;68672;42.676;23.356;2023-05-07T05:50:48;14.88;63.58
79244;SHT31;68672;42.676;23.356;2023-05-07T05:53:13;15.03;63.24
79244;SHT31;68672;42.676;23.356;2023-05-07T05:55:39;15.09;63.64
79244;SHT31;68672;42.676;23.356;2023-05-07T05:58:04;15.15;62.87
79244;SHT31;68672;42.676;23.356;2023-05-07T06:00:30;15.20;62.39
79244;SHT31;68672;42.676;23.356;2023-05-07T06:02:55;15.25;62.77
79244;SHT31;68672;42.676;23.356;2023-05-07T06:05:21;15.35;62.52
79244;SHT31;68672;42.676;23.356;2023-05-07T06:07:49;15.47;61.95
79244;SHT31;68672;42.676;23.356;2023-05-07T06:10:15;15.60;61.98
79244;SHT31;68672;42.676;23.356;2023-05-07T06:12:40;15.69;61.66
79244;SHT31;68672;42.676;23.356;2023-05-07T06:15:06;15.76;61.22
79244;SHT31;68672;42.676;23.356;2023-05-07T06:17:31;15.84;61.25
79244;SHT31;68672;42.676;23.356;2023-05-07T06:19:57;15.94;60.91
79244;SHT31;68672;42.676;23.356;2023-05-07T06:22:25;16.05;60.71
79244;SHT31;68672;42.676;23.356;2023-05-07T06:24:53;16.09;60.89
79244;SHT31;68672;42.676;23.356;2023-05-07T06:27:18;16.17;60.54
79244;SHT31;68672;42.676;23.356;2023-05-07T06:29:44;16.21;60.29
79244;SHT31;68672;42.676;23.356;2023-05-07T06:32:10;16.31;60.67
79244;SHT31;68672;42.676;23.356;2023-05-07T06:34:36;16.39;60.09
79244;SHT31;68672;42.676;23.356;2023-05-07T06:37:02;16.48;60.14
79244;SHT31;68672;42.676;23.356;2023-05-07T06:39:27;16.56;60.19
79244;SHT31;68672;42.676;23.356;2023-05-07T06:41:53;16.65;59.52
79244;SHT31;68672;42.676;23.356;2023-05-07T06:44:18;16.70;58.91
79244;SHT31;68672;42.676;23.356;2023-05-07T06:46:44;16.80;59.15
79244;SHT31;68672;42.676;23.356;2023-05-07T06:49:10;16.94;58.90
79244;SHT31;68672;42.676;23.356;2023-05-07T06:51:36;16.97;58.55
79244;SHT31;68672;42.676;23.356;2023-05-07T06:54:01;17.07;58.44
79244;SHT31;68672;42.676;23.356;2023-05-07T06:56:36;17.16;57.51
79244;SHT31;68672;42.676;23.356;2023-05-07T06:59:02;17.27;57.04
79244;SHT31;68672;42.676;23.356;2023-05-07T07:01:28;17.39;57.12
79244;SHT31;68672;42.676;23.356;2023-05-07T07:03:53;17.54;56.25
79244;SHT31;68672;42.676;23.356;2023-05-07T07:06:18;17.64;55.93
79244;SHT31;68672;42.676;23.356;2023-05-07T07:08:44;17.75;55.85
79244;SHT31;68672;42.676;23.356;2023-05-07T07:11:09;17.78;55.73
79244;SHT31;68672;42.676;23.356;2023-05-07T07:13:35;17.86;55.47
79244;SHT31;68672;42.676;23.356;2023-05-07T07:16:01;17.96;55.10
79244;SHT31;68672;42.676;23.356;2023-05-07T07:18:26;18.06;55.13
79244;SHT31;68672;42.676;23.356;2023-05-07T07:20:52;18.16;55.56
79244;SHT31;68672;42.676;23.356;2023-05-07T07:23:17;18.30;55.55
79244;SHT31;68672;42.676;23.356;2023-05-07T07:25:42;18.37;55.18
79244;SHT31;68672;42.676;23.356;2023-05-07T07:28:10;18.44;54.99
79244;SHT31;68672;42.676;23.356;2023-05-07T07:30:37;18.51;54.77
79244;SHT31;68672;42.676;23.356;2023-05-07T07:33:02;18.57;54.40
79244;SHT31;68672;42.676;23.356;2023-05-07T07:35:34;18.69;54.98
79244;SHT31;68672;42.676;23.356;2023-05-07T07:38:00;18.77;54.41
79244;SHT31;68672;42.676;23.356;2023-05-07T07:40:26;18.78;52.69
79244;SHT31;68672;42.676;23.356;2023-05-07T07:42:53;18.84;52.28
79244;SHT31;68672;42.676;23.356;2023-05-07T07:45:18;18.92;52.60
79244;SHT31;68672;42.676;23.356;2023-05-07T07:47:44;19.01;52.12
79244;SHT31;68672;42.676;23.356;2023-05-07T07:50:10;19.12;52.67
79244;SHT31;68672;42.676;23.356;2023-05-07T07:52:35;19.20;51.98
79244;SHT31;68672;42.676;23.356;2023-05-07T07:55:01;19.35;51.25
79244;SHT31;68672;42.676;23.356;2023-05-07T07:57:27;19.39;51.08
79244;SHT31;68672;42.676;23.356;2023-05-07T07:59:52;19.49;50.83
79244;SHT31;68672;42.676;23.356;2023-05-07T08:02:20;19.59;50.36
79244;SHT31;68672;42.676;23.356;2023-05-07T08:04:46;19.65;50.10
79244;SHT31;68672;42.676;23.356;2023-05-07T08:07:11;19.73;49.68
79244;SHT31;68672;42.676;23.356;2023-05-07T08:09:38;19.81;48.53
79244;SHT31;68672;42.676;23.356;2023-05-07T08:12:04;19.83;48.91
79244;SHT31;68672;42.676;23.356;2023-05-07T08:14:30;19.94;49.65
79244;SHT31;68672;42.676;23.356;2023-05-07T08:16:55;20.04;48.01
79244;SHT31;68672;42.676;23.356;2023-05-07T08:19:21;20.07;47.20
79244;SHT31;68672;42.676;23.356;2023-05-07T08:21:47;20.17;47.78
79244;SHT31;68672;42.676;23.356;2023-05-07T08:24:16;20.29;47.86
79244;SHT31;68672;42.676;23.356;2023-05-07T08:26:41;20.36;47.73
79244;SHT31;68672;42.676;23.356;2023-05-07T08:29:07;20.48;47.58
79244;SHT31;68672;42.676;23.356;2023-05-07T08:31:35;20.57;47.48
79244;SHT31;68672;42.676;23.356;2023-05-07T08:34:04;20.72;46.19
79244;SHT31;68672;42.676;23.356;2023-05-07T08:36:30;20.83;45.70
79244;SHT31;68672;42.676;23.356;2023-05-07T08:38:55;20.92;45.47
79244;SHT31;68672;42.676;23.356;2023-05-07T08:41:20;20.99;43.85
79244;SHT31;68672;42.676;23.356;2023-05-07T08:43:50;21.03;44.13
79244;SHT31;68672;42.676;23.356;2023-05-07T08:46:21;21.10;42.77
79244;SHT31;68672;42.676;23.356;2023-05-07T08:48:53;21.22;43.30
79244;SHT31;68672;42.676;23.356;2023-05-07T08:51:19;21.31;43.82
79244;SHT31;68672;42.676;23.356;2023-05-07T08:53:47;21.43;44.10
79244;SHT31;68672;42.676;23.356;2023-05-07T08:56:14;21.55;44.40
79244;SHT31;68672;42.676;23.356;2023-05-07T08:58:45;21.72;44.23
79244;SHT31;68672;42.676;23.356;2023-05-07T09:01:17;21.85;43.75
79244;SHT31;68672;42.676;23.356;2023-05-07T09:03:45;21.95;42.80
79244;SHT31;68672;42.676;23.356;2023-05-07T09:06:11;22.03;40.98
79244;SHT31;68672;42.676;23.356;2023-05-07T09:08:36;22.06;40.21
79244;SHT31;68672;42.676;23.356;2023-05-07T09:11:02;22.14;40.45
79244;SHT31;68672;42.676;23.356;2023-05-07T09:13:28;22.24;40.94
79244;SHT31;68672;42.676;23.356;2023-05-07T09:15:54;22.37;41.06
79244;SHT31;68672;42.676;23.356;2023-05-07T09:18:25;22.53;41.44
79244;SHT31;68672;42.676;23.356;2023-05-07T09:20:51;22.68;41.66
79244;SHT31;68672;42.676;23.356;2023-05-07T09:23:16;22.88;41.09
79244;SHT31;68672;42.676;23.356;2023-05-07T09:25:41;23.05;40.52
79244;SHT31;68672;42.676;23.356;2023-05-07T09:28:07;23.19;39.49
79244;SHT31;68672;42.676;23.356;2023-05-07T09:30:37;23.32;40.14
79244;SHT31;68672;42.676;23.356;2023-05-07T09:33:03;23.49;40.15
79244;SHT31;68672;42.676;23.356;2023-05-07T09:35:29;23.63;39.27
79244;SHT31;68672;42.676;23.356;2023-05-07T09:37:59;23.83;37.96
79244;SHT31;68672;42.676;23.356;2023-05-07T09:40:31;23.96;37.24
79244;SHT31;68672;42.676;23.356;2023-05-07T09:42:56;24.14;36.45
79244;SHT31;68672;42.676;23.356;2023-05-07T09:45:33;24.28;34.35
79244;SHT31;68672;42.676;23.356;2023-05-07T09:47:59;24.32;35.10
79244;SHT31;68672;42.676;23.356;2023-05-07T09:50:30;24.38;35.28
79244;SHT31;68672;42.676;23.356;2023-05-07T09:52:57;24.54;34.40
79244;SHT31;68672;42.676;23.356;2023-05-07T09:55:23;24.37;33.51
79244;SHT31;68672;42.676;23.356;2023-05-07T09:57:53;24.24;33.99
79244;SHT31;68672;42.676;23.356;2023-05-07T10:00:19;24.31;34.67
79244;SHT31;68672;42.676;23.356;2023-05-07T10:02:51;24.37;34.91
79244;SHT31;68672;42.676;23.356;2023-05-07T10:05:21;24.52;32.85
79244;SHT31;68672;42.676;23.356;2023-05-07T10:07:50;24.49;32.35
79244;SHT31;68672;42.676;23.356;2023-05-07T10:10:17;24.41;32.33
79244;SHT31;68672;42.676;23.356;2023-05-07T10:12:45;24.42;32.72
79244;SHT31;68672;42.676;23.356;2023-05-07T10:15:12;24.59;33.30
79244;SHT31;68672;42.676;23.356;2023-05-07T10:17:40;24.82;33.64
79244;SHT31;68672;42.676;23.356;2023-05-07T10:20:07;25.10;33.65
79244;SHT31;68672;42.676;23.356;2023-05-07T10:22:39;25.39;31.52
79244;SHT31;68672;42.676;23.356;2023-05-07T10:25:18;25.36;30.42
79244;SHT31;68672;42.676;23.356;2023-05-07T10:27:46;25.46;30.98
79244;SHT31;68672;42.676;23.356;2023-05-07T10:31:02;25.46;31.48
79244;SHT31;68672;42.676;23.356;2023-05-07T10:33:32;25.36;30.25
79244;SHT31;68672;42.676;23.356;2023-05-07T10:36:01;25.43;30.40
79244;SHT31;68672;42.676;23.356;2023-05-07T10:38:28;25.50;29.42
79244;SHT31;68672;42.676;23.356;2023-05-07T10:40:54;25.53;29.01
79244;SHT31;68672;42.676;23.356;2023-05-07T10:43:19;25.70;29.15
79244;SHT31;68672;42.676;23.356;2023-05-07T10:46:17;25.70;29.23
79244;SHT31;68672;42.676;23.356;2023-05-07T10:51:32;25.92;29.98
79244;SHT31;68672;42.676;23.356;2023-05-07T10:56:35;26.19;29.46
79244;SHT31;68672;42.676;23.356;2023-05-07T11:01:58;26.49;28.78
79244;SHT31;68672;42.676;23.356;2023-05-07T11:04:24;26.61;28.59
79244;SHT31;68672;42.676;23.356;2023-05-07T11:15:14;27.08;27.25
79244;SHT31;68672;42.676;23.356;2023-05-07T11:17:54;27.06;27.50
79244;SHT31;68672;42.676;23.356;2023-05-07T11:20:20;27.14;28.55
79244;SHT31;68672;42.676;23.356;2023-05-07T11:22:46;27.24;29.00
79244;SHT31;68672;42.676;23.356;2023-05-07T11:25:18;27.38;26.93
79244;SHT31;68672;42.676;23.356;2023-05-07T11:27:44;27.34;26.98
79244;SHT31;68672;42.676;23.356;2023-05-07T11:30:16;27.38;27.62
79244;SHT31;68672;42.676;23.356;2023-05-07T11:32:43;27.48;27.16
79244;SHT31;68672;42.676;23.356;2023-05-07T11:35:12;27.52;27.32
79244;SHT31;68672;42.676;23.356;2023-05-07T11:37:38;27.66;27.45
79244;SHT31;68672;42.676;23.356;2023-05-07T11:40:07;27.81;27.34
79244;SHT31;68672;42.676;23.356;2023-05-07T11:42:35;27.82;26.57
79244;SHT31;68672;42.676;23.356;2023-05-07T11:45:03;27.92;26.82
79244;SHT31;68672;42.676;23.356;2023-05-07T11:47:32;28.06;26.45
79244;SHT31;68672;42.676;23.356;2023-05-07T11:50:03;28.10;25.84
79244;SHT31;68672;42.676;23.356;2023-05-07T11:52:29;28.13;25.88
79244;SHT31;68672;42.676;23.356;2023-05-07T11:54:56;28.14;25.76
79244;SHT31;68672;42.676;23.356;2023-05-07T11:57:23;28.18;26.50
79244;SHT31;68672;42.676;23.356;2023-05-07T11:59:58;28.27;25.11
79244;SHT31;68672;42.676;23.356;2023-05-07T12:02:25;28.17;25.55
79244;SHT31;68672;42.676;23.356;2023-05-07T12:04:54;28.12;25.46
79244;SHT31;68672;42.676;23.356;2023-05-07T12:07:20;27.97;25.15
79244;SHT31;68672;42.676;23.356;2023-05-07T12:09:46;27.92;25.91
79244;SHT31;68672;42.676;23.356;2023-05-07T12:12:13;27.88;26.05
79244;SHT31;68672;42.676;23.356;2023-05-07T12:14:42;27.83;26.80
79244;SHT31;68672;42.676;23.356;2023-05-07T12:17:09;27.75;25.57
79244;SHT31;68672;42.676;23.356;2023-05-07T12:19:39;27.78;25.98
79244;SHT31;68672;42.676;23.356;2023-05-07T12:22:07;27.78;25.60
79244;SHT31;68672;42.676;23.356;2023-05-07T12:24:49;27.70;25.40
79244;SHT31;68672;42.676;23.356;2023-05-07T12:27:18;27.76;25.76
79244;SHT31;68672;42.676;23.356;2023-05-07T12:29:47;27.79;26.60
79244;SHT31;68672;42.676;23.356;2023-05-07T12:32:16;27.97;26.02
79244;SHT31;68672;42.676;23.356;2023-05-07T12:34:43;28.32;25.30
79244;SHT31;68672;42.676;23.356;2023-05-07T12:37:09;28.72;24.79
79244;SHT31;68672;42.676;23.356;2023-05-07T12:39:38;29.43;23.85
79244;SHT31;68672;42.676;23.356;2023-05-07T12:42:06;30.29;22.10
79244;SHT31;68672;42.676;23.356;2023-05-07T12:44:32;31.29;21.26
79244;SHT31;68672;42.676;23.356;2023-05-07T12:47:00;32.25;20.03
79244;SHT31;68672;42.676;23.356;2023-05-07T12:49:26;33.34;19.51
79244;SHT31;68672;42.676;23.356;2023-05-07T12:51:53;34.61;18.60
79244;SHT31;68672;42.676;23.356;2023-05-07T12:54:31;36.17;17.67
79244;SHT31;68672;42.676;23.356;2023-05-07T12:57:08;37.61;16.83
79244;SHT31;68672;42.676;23.356;2023-05-07T12:59:36;38.89;15.54
79244;SHT31;68672;42.676;23.356;2023-05-07T13:02:02;39.91;15.36
79244;SHT31;68672;42.676;23.356;2023-05-07T13:04:28;40.86;15.06
79244;SHT31;68672;42.676;23.356;2023-05-07T13:06:53;41.64;14.05
79244;SHT31;68672;42.676;23.356;2023-05-07T13:09:19;42.26;13.92
79244;SHT31;68672;42.676;23.356;2023-05-07T13:11:53;42.51;13.82
79244;SHT31;68672;42.676;23.356;2023-05-07T13:14:18;42.59;13.76
79244;SHT31;68672;42.676;23.356;2023-05-07T13:16:46;41.79;13.67
79244;SHT31;68672;42.676;23.356;2023-05-07T13:19:12;40.97;14.16
79244;SHT31;68672;42.676;23.356;2023-05-07T13:21:37;39.69;15.00
79244;SHT31;68672;42.676;23.356;2023-05-07T13:24:02;38.31;15.53
79244;SHT31;68672;42.676;23.356;2023-05-07T13:26:30;36.76;16.69
79244;SHT31;68672;42.676;23.356;2023-05-07T13:28:56;35.40;17.52
79244;SHT31;68672;42.676;23.356;2023-05-07T13:31:21;34.40;18.15
79244;SHT31;68672;42.676;23.356;2023-05-07T13:33:47;33.42;19.07
79244;SHT31;68672;42.676;23.356;2023-05-07T13:36:12;32.83;20.01
79244;SHT31;68672;42.676;23.356;2023-05-07T13:38:39;32.20;20.38
79244;SHT31;68672;42.676;23.356;2023-05-07T13:41:05;31.67;20.96
79244;SHT31;68672;42.676;23.356;2023-05-07T13:43:30;31.14;21.39
79244;SHT31;68672;42.676;23.356;2023-05-07T13:45:57;30.55;22.12
79244;SHT31;68672;42.676;23.356;2023-05-07T13:48:25;30.08;22.84
79244;SHT31;68672;42.676;23.356;2023-05-07T13:50:51;29.53;22.72
79244;SHT31;68672;42.676;23.356;2023-05-07T13:53:22;29.12;23.30
79244;SHT31;68672;42.676;23.356;2023-05-07T13:55:48;28.82;23.84
79244;SHT31;68672;42.676;23.356;2023-05-07T13:58:13;28.64;24.38
79244;SHT31;68672;42.676;23.356;2023-05-07T14:00:39;28.47;24.67
79244;SHT31;68672;42.676;23.356;2023-05-07T14:03:05;28.30;24.96
79244;SHT31;68672;42.676;23.356;2023-05-07T14:05:30;28.20;24.97
79244;SHT31;68672;42.676;23.356;2023-05-07T14:07:59;28.14;24.37
79244;SHT31;68672;42.676;23.356;2023-05-07T14:10:24;28.13;25.14
79244;SHT31;68672;42.676;23.356;2023-05-07T14:12:50;28.13;24.69
79244;SHT31;68672;42.676;23.356;2023-05-07T14:15:15;28.06;24.97
79244;SHT31;68672;42.676;23.356;2023-05-07T14:17:42;27.88;25.09
79244;SHT31;68672;42.676;23.356;2023-05-07T14:20:08;27.65;25.36
79244;SHT31;68672;42.676;23.356;2023-05-07T14:22:33;27.44;25.46
79244;SHT31;68672;42.676;23.356;2023-05-07T14:24:59;27.25;25.66
79244;SHT31;68672;42.676;23.356;2023-05-07T14:27:24;27.10;26.17
79244;SHT31;68672;42.676;23.356;2023-05-07T14:29:50;26.91;25.89
79244;SHT31;68672;42.676;23.356;2023-05-07T14:32:19;26.77;26.35
79244;SHT31;68672;42.676;23.356;2023-05-07T14:34:45;26.69;26.73
79244;SHT31;68672;42.676;23.356;2023-05-07T14:37:11;26.70;26.70
79244;SHT31;68672;42.676;23.356;2023-05-07T14:39:39;26.77;26.68
79244;SHT31;68672;42.676;23.356;2023-05-07T14:42:05;26.87;26.81
79244;SHT31;68672;42.676;23.356;2023-05-07T14:44:33;27.00;26.74
79244;SHT31;68672;42.676;23.356;2023-05-07T14:47:01;26.96;27.02
79244;SHT31;68672;42.676;23.356;2023-05-07T14:49:27;26.93;26.94
79244;SHT31;68672;42.676;23.356;2023-05-07T14:51:53;26.83;27.07
79244;SHT31;68672;42.676;23.356;2023-05-07T14:54:18;26.72;28.10
79244;SHT31;68672;42.676;23.356;2023-05-07T14:56:44;26.56;26.33
79244;SHT31;68672;42.676;23.356;2023-05-07T14:59:12;26.39;26.74
79244;SHT31;68672;42.676;23.356;2023-05-07T15:01:38;26.29;27.10
79244;SHT31;68672;42.676;23.356;2023-05-07T15:04:05;26.25;27.54
79244;SHT31;68672;42.676;23.356;2023-05-07T15:06:31;26.21;27.93
79244;SHT31;68672;42.676;23.356;2023-05-07T15:09:00;26.12;27.79
79244;SHT31;68672;42.676;23.356;2023-05-07T15:11:25;25.99;27.47
79244;SHT31;68672;42.676;23.356;2023-05-07T15:13:51;25.89;27.68
79244;SHT31;68672;42.676;23.356;2023-05-07T15:16:16;25.87;27.87
79244;SHT31;68672;42.676;23.356;2023-05-07T15:18:42;25.85;28.01
79244;SHT31;68672;42.676;23.356;2023-05-07T15:21:08;25.84;28.15
79244;SHT31;68672;42.676;23.356;2023-05-07T15:23:33;25.81;28.79
79244;SHT31;68672;42.676;23.356;2023-05-07T15:25:58;25.77;28.46
79244;SHT31;68672;42.676;23.356;2023-05-07T15:28:24;25.70;28.25
79244;SHT31;68672;42.676;23.356;2023-05-07T15:30:50;25.64;28.46
79244;SHT31;68672;42.676;23.356;2023-05-07T15:33:15;25.60;28.61